Time;durP1;ratioP1;P1;durP2;ratioP2;P2;SDS_P1;SDS_P2;PMS_P1;PMS_P2;Temp;Humidity;BMP_temperature;BMP_pressure;BME280_temperature;BME280_humidity;BME280_pressure;Samples;Min_cycle;Max_cycle;Signal;HPM_P1;HPM_P2
2023/08/06 00:00:19;;;;;;;2.30;2.10;;;;;;;;;;5063209;28;20433;-83
2023/08/06 00:02:45;;;;;;;2.80;2.50;;;;;;;;;;5072159;28;20403;-83
2023/08/06 00:05:11;;;;;;;2.45;2.25;;;;;;;;;;5056300;28;20843;-82
2023/08/06 00:07:37;;;;;;;3.03;2.30;;;;;;;;;;5072348;28;20462;-82
2023/08/06 00:10:03;;;;;;;2.40;2.20;;;;;;;;;;5071599;28;20377;-82
2023/08/06 00:12:29;;;;;;;2.13;1.98;;;;;;;;;;5059114;28;20904;-83
2023/08/06 00:14:55;;;;;;;3.45;2.05;;;;;;;;;;5071229;28;20393;-83
2023/08/06 00:17:21;;;;;;;2.65;2.42;;;;;;;;;;5062785;28;20417;-82
2023/08/06 00:19:47;;;;;;;2.75;2.55;;;;;;;;;;5074660;28;20903;-82
2023/08/06 00:22:13;;;;;;;2.83;2.50;;;;;;;;;;5079720;28;20416;-83
2023/08/06 00:24:39;;;;;;;2.50;2.30;;;;;;;;;;5080005;28;20900;-82
2023/08/06 00:27:05;;;;;;;2.60;2.40;;;;;;;;;;5079824;28;20445;-82
2023/08/06 00:29:31;;;;;;;2.95;2.50;;;;;;;;;;5079435;28;20418;-83
2023/08/06 00:31:57;;;;;;;2.63;2.42;;;;;;;;;;5061085;28;20469;-83
2023/08/06 00:34:23;;;;;;;2.30;2.10;;;;;;;;;;5078727;28;20387;-83
2023/08/06 00:36:49;;;;;;;2.13;1.93;;;;;;;;;;5078966;28;20884;-82
2023/08/06 00:39:15;;;;;;;2.35;2.15;;;;;;;;;;5078053;28;20449;-83
2023/08/06 00:41:41;;;;;;;3.00;2.00;;;;;;;;;;5078009;28;20458;-83
2023/08/06 00:44:07;;;;;;;2.20;2.00;;;;;;;;;;5079272;28;20475;-83
2023/08/06 00:46:34;;;;;;;2.97;2.13;;;;;;;;;;5072793;28;20464;-83
2023/08/06 00:49:00;;;;;;;2.50;1.93;;;;;;;;;;5079020;28;20375;-83
2023/08/06 00:51:26;;;;;;;2.30;1.88;;;;;;;;;;5079257;28;20415;-83
2023/08/06 00:53:53;;;;;;;2.08;1.80;;;;;;;;;;5079486;28;20372;-83
2023/08/06 00:56:19;;;;;;;1.90;1.80;;;;;;;;;;5080033;28;20426;-83
2023/08/06 00:58:46;;;;;;;1.83;1.65;;;;;;;;;;5079828;28;20398;-83
2023/08/06 01:01:12;;;;;;;1.70;1.60;;;;;;;;;;5079322;28;20443;-83
2023/08/06 01:03:38;;;;;;;1.95;1.80;;;;;;;;;;5078079;28;20786;-83
2023/08/06 01:06:05;;;;;;;1.90;1.80;;;;;;;;;;5077740;28;20390;-83
2023/08/06 01:08:49;;;;;;;2.92;1.77;;;;;;;;;;5078660;28;20841;-83
2023/08/06 01:11:18;;;;;;;1.55;1.45;;;;;;;;;;5079014;28;20429;-83
2023/08/06 01:13:47;;;;;;;2.35;1.67;;;;;;;;;;5079157;28;20639;-83
2023/08/06 01:16:16;;;;;;;2.10;1.80;;;;;;;;;;5079208;28;20384;-83
2023/08/06 01:18:45;;;;;;;2.33;2.00;;;;;;;;;;5078675;28;20383;-83
2023/08/06 01:21:11;;;;;;;2.30;1.88;;;;;;;;;;5064805;28;20841;-83
2023/08/06 01:23:38;;;;;;;1.55;1.45;;;;;;;;;;5077816;28;20494;-83
2023/08/06 01:26:04;;;;;;;3.15;1.85;;;;;;;;;;5078638;28;20380;-83
2023/08/06 01:28:35;;;;;;;2.60;1.80;;;;;;;;;;5077718;28;20467;-83
2023/08/06 01:31:03;;;;;;;1.83;1.58;;;;;;;;;;5077975;28;20379;-83
2023/08/06 01:33:31;;;;;;;1.93;1.70;;;;;;;;;;5077855;28;20486;-83
2023/08/06 01:35:58;;;;;;;1.77;1.60;;;;;;;;;;5078363;28;20741;-83
2023/08/06 01:38:24;;;;;;;1.77;1.67;;;;;;;;;;5069480;28;20395;-83
2023/08/06 01:40:50;;;;;;;1.67;1.58;;;;;;;;;;5078628;28;20423;-83
2023/08/06 01:43:16;;;;;;;2.90;1.70;;;;;;;;;;5077770;28;20391;-83
2023/08/06 01:45:42;;;;;;;1.88;1.77;;;;;;;;;;5077065;28;20932;-83
2023/08/06 01:48:08;;;;;;;2.20;2.00;;;;;;;;;;5077705;28;20383;-83
2023/08/06 01:50:34;;;;;;;2.10;1.90;;;;;;;;;;5077846;28;20407;-83
2023/08/06 01:53:00;;;;;;;2.40;1.80;;;;;;;;;;5077551;28;20716;-82
2023/08/06 01:55:26;;;;;;;2.27;1.70;;;;;;;;;;5076674;28;20384;-83
2023/08/06 01:57:52;;;;;;;2.10;1.90;;;;;;;;;;5076347;28;20419;-83
2023/08/06 02:00:18;;;;;;;1.98;1.80;;;;;;;;;;5076584;28;20391;-83
2023/08/06 02:02:44;;;;;;;1.83;1.73;;;;;;;;;;5075821;28;20439;-83
2023/08/06 02:05:10;;;;;;;1.70;1.60;;;;;;;;;;5076155;28;20484;-84
2023/08/06 02:07:36;;;;;;;1.63;1.52;;;;;;;;;;5072181;28;20395;-83
2023/08/06 02:10:02;;;;;;;1.58;1.48;;;;;;;;;;5071026;28;20501;-84
2023/08/06 02:12:28;;;;;;;2.13;1.70;;;;;;;;;;5074855;28;20403;-83
2023/08/06 02:14:54;;;;;;;1.58;1.33;;;;;;;;;;5071031;28;20381;-84
2023/08/06 02:17:20;;;;;;;1.73;1.63;;;;;;;;;;5076168;28;20434;-83
2023/08/06 02:19:46;;;;;;;1.95;1.65;;;;;;;;;;5072379;28;20914;-84
2023/08/06 02:22:12;;;;;;;1.50;1.40;;;;;;;;;;5056030;28;20420;-83
2023/08/06 02:24:38;;;;;;;2.30;1.58;;;;;;;;;;5073437;28;20379;-84
2023/08/06 02:27:04;;;;;;;3.10;1.50;;;;;;;;;;5077603;28;20387;-84
2023/08/06 02:29:31;;;;;;;1.67;1.48;;;;;;;;;;5077766;28;20403;-84
2023/08/06 02:31:57;;;;;;;2.40;1.52;;;;;;;;;;5078396;28;20383;-85
2023/08/06 02:34:23;;;;;;;3.70;1.67;;;;;;;;;;5076356;28;20379;-84
2023/08/06 02:36:49;;;;;;;2.17;1.60;;;;;;;;;;5062562;28;20420;-84
2023/08/06 02:39:15;;;;;;;1.80;1.60;;;;;;;;;;5077100;28;20502;-84
2023/08/06 02:41:41;;;;;;;2.67;1.58;;;;;;;;;;5063194;28;20385;-84
2023/08/06 02:44:07;;;;;;;1.52;1.42;;;;;;;;;;5060420;28;20449;-84
2023/08/06 02:46:33;;;;;;;1.88;1.70;;;;;;;;;;5077279;28;20889;-83
2023/08/06 02:48:59;;;;;;;2.10;1.50;;;;;;;;;;5056622;28;20390;-84
2023/08/06 02:51:25;;;;;;;1.40;1.30;;;;;;;;;;5051429;28;20412;-84
2023/08/06 02:53:51;;;;;;;1.85;1.65;;;;;;;;;;5058286;28;20414;-83
2023/08/06 02:56:17;;;;;;;1.58;1.42;;;;;;;;;;5077250;28;20421;-84
2023/08/06 02:58:43;;;;;;;1.90;1.50;;;;;;;;;;5061161;28;20412;-84
2023/08/06 03:01:09;;;;;;;2.67;1.88;;;;;;;;;;5064348;28;20401;-82
2023/08/06 03:03:35;;;;;;;2.40;1.80;;;;;;;;;;5079026;28;20384;-83
2023/08/06 03:06:01;;;;;;;1.70;1.60;;;;;;;;;;5081932;28;20383;-83
2023/08/06 03:08:27;;;;;;;1.70;1.60;;;;;;;;;;5059248;28;20816;-83
2023/08/06 03:10:53;;;;;;;2.60;1.58;;;;;;;;;;5057654;28;20388;-83
2023/08/06 03:13:20;;;;;;;1.73;1.63;;;;;;;;;;5075692;28;20840;-83
2023/08/06 03:15:56;;;;;;;2.30;1.73;;;;;;;;;;5055217;28;20386;-83
2023/08/06 03:18:22;;;;;;;1.80;1.70;;;;;;;;;;5074736;28;20419;-83
2023/08/06 03:20:48;;;;;;;1.73;1.63;;;;;;;;;;5072935;28;20787;-82
2023/08/06 03:23:14;;;;;;;1.55;1.45;;;;;;;;;;5073320;28;20459;-83
2023/08/06 03:25:40;;;;;;;1.90;1.60;;;;;;;;;;5068534;28;20403;-83
2023/08/06 03:28:06;;;;;;;2.40;1.30;;;;;;;;;;5074232;28;20457;-83
2023/08/06 03:30:32;;;;;;;1.60;1.48;;;;;;;;;;5056456;28;20405;-83
2023/08/06 03:32:58;;;;;;;1.83;1.50;;;;;;;;;;5074301;28;20423;-83
2023/08/06 03:35:24;;;;;;;1.73;1.63;;;;;;;;;;5075186;28;20449;-83
2023/08/06 03:37:50;;;;;;;1.70;1.60;;;;;;;;;;5074884;28;20422;-83
2023/08/06 03:40:16;;;;;;;1.45;1.30;;;;;;;;;;5075098;28;20394;-83
2023/08/06 03:42:42;;;;;;;1.52;1.42;;;;;;;;;;5075769;28;20383;-83
2023/08/06 03:45:08;;;;;;;1.73;1.50;;;;;;;;;;5058315;28;20445;-83
2023/08/06 03:47:34;;;;;;;1.88;1.50;;;;;;;;;;5079066;28;20388;-83
2023/08/06 03:50:00;;;;;;;1.40;1.30;;;;;;;;;;5078689;28;20886;-83
2023/08/06 03:52:26;;;;;;;1.40;1.30;;;;;;;;;;5078633;28;20459;-84
2023/08/06 03:54:52;;;;;;;1.50;1.20;;;;;;;;;;5079052;28;20372;-83
2023/08/06 03:57:18;;;;;;;1.92;1.40;;;;;;;;;;5060438;28;20415;-83
2023/08/06 03:59:44;;;;;;;1.73;1.33;;;;;;;;;;5078696;28;20399;-82
2023/08/06 04:02:10;;;;;;;2.73;1.53;;;;;;;;;;5060771;28;20473;-82
2023/08/06 04:04:36;;;;;;;1.80;1.67;;;;;;;;;;5073791;28;20395;-82
2023/08/06 04:07:05;;;;;;;1.88;1.55;;;;;;;;;;5060393;28;20379;-82
2023/08/06 04:09:31;;;;;;;2.40;1.58;;;;;;;;;;5078113;28;20391;-82
2023/08/06 04:11:58;;;;;;;2.55;1.60;;;;;;;;;;5078695;28;20862;-82
2023/08/06 04:14:24;;;;;;;2.60;1.48;;;;;;;;;;5078279;28;20380;-82
2023/08/06 04:16:50;;;;;;;1.90;1.70;;;;;;;;;;5060849;28;20403;-82
2023/08/06 04:19:16;;;;;;;1.60;1.50;;;;;;;;;;5059037;28;20395;-83
2023/08/06 04:21:42;;;;;;;1.60;1.50;;;;;;;;;;5059708;28;20381;-83
2023/08/06 04:24:08;;;;;;;1.40;1.30;;;;;;;;;;5073428;28;20383;-83
2023/08/06 04:26:34;;;;;;;1.40;1.30;;;;;;;;;;5065260;28;20441;-83
2023/08/06 04:29:00;;;;;;;1.60;1.50;;;;;;;;;;5077642;28;20394;-83
2023/08/06 04:31:26;;;;;;;1.75;1.48;;;;;;;;;;5058942;28;20373;-82
2023/08/06 04:33:52;;;;;;;1.98;1.33;;;;;;;;;;5068688;28;20718;-82
2023/08/06 04:36:18;;;;;;;1.70;1.30;;;;;;;;;;5061784;28;20381;-82
2023/08/06 04:38:47;;;;;;;1.75;1.50;;;;;;;;;;5058757;28;20404;-82
2023/08/06 04:41:13;;;;;;;2.05;1.23;;;;;;;;;;5059426;28;20377;-82
2023/08/06 04:43:39;;;;;;;1.70;0.90;;;;;;;;;;5072289;28;20381;-83
2023/08/06 04:46:06;;;;;;;1.50;1.05;;;;;;;;;;5072247;28;20411;-83
2023/08/06 04:48:32;;;;;;;1.25;1.10;;;;;;;;;;5058529;28;20393;-82
2023/08/06 04:50:58;;;;;;;2.53;1.20;;;;;;;;;;5057843;28;20380;-83
2023/08/06 04:53:24;;;;;;;1.77;1.00;;;;;;;;;;5061983;28;20392;-83
2023/08/06 04:55:50;;;;;;;1.10;0.90;;;;;;;;;;5067956;28;20380;-83
2023/08/06 04:58:16;;;;;;;1.13;0.80;;;;;;;;;;5061487;28;20425;-83
2023/08/06 05:00:42;;;;;;;1.87;0.80;;;;;;;;;;5058018;28;20409;-83
2023/08/06 05:03:08;;;;;;;1.35;0.70;;;;;;;;;;5054141;28;20904;-83
2023/08/06 05:05:35;;;;;;;1.43;0.80;;;;;;;;;;5064630;28;20476;-82
2023/08/06 05:08:01;;;;;;;1.20;0.85;;;;;;;;;;5077597;28;20388;-82
2023/08/06 05:10:27;;;;;;;1.30;0.70;;;;;;;;;;5060332;28;20389;-83
2023/08/06 05:12:53;;;;;;;1.75;0.50;;;;;;;;;;5057470;28;20389;-83
2023/08/06 05:15:19;;;;;;;1.75;0.60;;;;;;;;;;5060152;28;20394;-82
2023/08/06 05:17:45;;;;;;;0.82;0.40;;;;;;;;;;5076951;28;20403;-82
2023/08/06 05:20:11;;;;;;;3.65;0.60;;;;;;;;;;5066995;28;20393;-83
2023/08/06 05:22:37;;;;;;;1.00;0.50;;;;;;;;;;5073106;28;20403;-82
2023/08/06 05:25:04;;;;;;;1.73;0.50;;;;;;;;;;5057412;28;20851;-82
2023/08/06 05:27:30;;;;;;;1.33;0.40;;;;;;;;;;5071366;28;20394;-82
2023/08/06 05:29:56;;;;;;;1.23;0.40;;;;;;;;;;5058662;28;20380;-82
2023/08/06 05:32:22;;;;;;;0.52;0.35;;;;;;;;;;5064333;28;20385;-82
2023/08/06 05:34:48;;;;;;;0.70;0.40;;;;;;;;;;5056685;28;20432;-82
2023/08/06 05:37:14;;;;;;;1.50;0.40;;;;;;;;;;5057008;28;20413;-82
2023/08/06 05:39:40;;;;;;;0.88;0.40;;;;;;;;;;5059177;28;20386;-82
2023/08/06 05:42:07;;;;;;;0.40;0.20;;;;;;;;;;5068493;28;20424;-82
2023/08/06 05:44:33;;;;;;;1.17;0.50;;;;;;;;;;5053445;28;20396;-82
2023/08/06 05:46:59;;;;;;;0.82;0.30;;;;;;;;;;5070640;28;20397;-82
2023/08/06 05:49:25;;;;;;;1.00;0.40;;;;;;;;;;5055288;28;20881;-82
2023/08/06 05:51:53;;;;;;;1.50;0.30;;;;;;;;;;5058043;28;20397;-82
2023/08/06 05:54:19;;;;;;;0.38;0.20;;;;;;;;;;5056689;28;20386;-81
2023/08/06 05:56:45;;;;;;;0.80;0.45;;;;;;;;;;5057114;28;20413;-83
2023/08/06 05:59:11;;;;;;;1.60;0.57;;;;;;;;;;5057237;28;20377;-82
2023/08/06 06:01:37;;;;;;;0.70;0.30;;;;;;;;;;5071420;28;20733;-82
2023/08/06 06:04:03;;;;;;;0.77;0.40;;;;;;;;;;5065349;28;20412;-82
2023/08/06 06:06:29;;;;;;;0.80;0.30;;;;;;;;;;5062320;28;20423;-82
2023/08/06 06:08:55;;;;;;;1.13;0.40;;;;;;;;;;5070539;28;20394;-82
2023/08/06 06:11:22;;;;;;;1.75;0.60;;;;;;;;;;5056223;28;20447;-83
2023/08/06 06:13:49;;;;;;;2.45;0.70;;;;;;;;;;5056384;28;20385;-82
2023/08/06 06:16:15;;;;;;;2.65;0.70;;;;;;;;;;5062123;28;20390;-82
2023/08/06 06:18:41;;;;;;;2.00;0.65;;;;;;;;;;5055909;28;20399;-83
2023/08/06 06:21:07;;;;;;;2.08;0.80;;;;;;;;;;5075029;28;20382;-82
2023/08/06 06:23:33;;;;;;;1.27;0.60;;;;;;;;;;5075389;28;20393;-82
2023/08/06 06:25:59;;;;;;;1.95;0.77;;;;;;;;;;5057571;28;20444;-82
2023/08/06 06:28:25;;;;;;;1.27;0.57;;;;;;;;;;5075994;28;20887;-82
2023/08/06 06:30:52;;;;;;;3.33;0.73;;;;;;;;;;5076200;28;20388;-83
2023/08/06 06:33:18;;;;;;;1.75;0.70;;;;;;;;;;5076066;28;20471;-82
2023/08/06 06:35:44;;;;;;;3.22;0.98;;;;;;;;;;5075569;28;20399;-82
2023/08/06 06:38:10;;;;;;;1.95;0.75;;;;;;;;;;5075459;28;20560;-82
2023/08/06 06:40:36;;;;;;;1.63;0.63;;;;;;;;;;5076275;28;20877;-82
2023/08/06 06:43:02;;;;;;;1.55;0.60;;;;;;;;;;5075950;28;20386;-82
2023/08/06 06:45:28;;;;;;;2.67;0.60;;;;;;;;;;5075651;28;20376;-82
2023/08/06 06:47:54;;;;;;;2.10;0.73;;;;;;;;;;5075205;28;20457;-82
2023/08/06 06:50:20;;;;;;;3.08;0.80;;;;;;;;;;5076569;28;20391;-82
2023/08/06 06:52:46;;;;;;;2.03;0.70;;;;;;;;;;5075926;28;20380;-82
2023/08/06 06:55:12;;;;;;;2.80;0.70;;;;;;;;;;5058608;28;20424;-82
2023/08/06 06:57:38;;;;;;;2.65;0.77;;;;;;;;;;5076250;28;20742;-81
2023/08/06 07:00:04;;;;;;;1.40;0.50;;;;;;;;;;5074122;28;20383;-81
2023/08/06 07:02:30;;;;;;;1.85;0.60;;;;;;;;;;5074829;28;20386;-82
2023/08/06 07:04:56;;;;;;;1.55;0.60;;;;;;;;;;5057177;28;20474;-82
2023/08/06 07:07:22;;;;;;;1.58;0.50;;;;;;;;;;5074939;28;20403;-81
2023/08/06 07:09:48;;;;;;;1.90;0.60;;;;;;;;;;5055272;28;20432;-82
2023/08/06 07:12:14;;;;;;;1.90;0.57;;;;;;;;;;5076135;28;20383;-82
2023/08/06 07:14:40;;;;;;;3.25;0.60;;;;;;;;;;5076098;28;20417;-82
2023/08/06 07:17:06;;;;;;;1.65;0.63;;;;;;;;;;5075644;28;20383;-83
2023/08/06 07:19:32;;;;;;;3.13;0.82;;;;;;;;;;5074465;28;20424;-82
2023/08/06 07:21:58;;;;;;;1.60;0.70;;;;;;;;;;5074266;28;20375;-82
2023/08/06 07:24:24;;;;;;;0.93;0.50;;;;;;;;;;5075744;28;20376;-82
2023/08/06 07:26:52;;;;;;;1.30;0.50;;;;;;;;;;5056744;28;20450;-81
2023/08/06 07:29:21;;;;;;;1.80;0.68;;;;;;;;;;5074776;28;20437;-82
2023/08/06 07:31:47;;;;;;;0.70;0.40;;;;;;;;;;5075154;28;20388;-82
2023/08/06 07:34:13;;;;;;;1.65;0.60;;;;;;;;;;5075252;28;20468;-82
2023/08/06 07:36:39;;;;;;;1.80;0.55;;;;;;;;;;5058108;28;20419;-82
2023/08/06 07:39:06;;;;;;;1.05;0.40;;;;;;;;;;5076115;28;20386;-82
2023/08/06 07:41:32;;;;;;;1.08;0.45;;;;;;;;;;5076723;28;20379;-82
2023/08/06 07:43:58;;;;;;;1.30;0.50;;;;;;;;;;5075445;28;20380;-82
2023/08/06 07:46:24;;;;;;;1.20;0.30;;;;;;;;;;5075158;28;20384;-81
2023/08/06 07:48:50;;;;;;;1.00;0.40;;;;;;;;;;5074694;28;20379;-82
2023/08/06 07:51:16;;;;;;;1.08;0.30;;;;;;;;;;5075185;28;20395;-82
2023/08/06 07:53:42;;;;;;;1.30;0.30;;;;;;;;;;5074384;28;20387;-81
2023/08/06 07:56:08;;;;;;;0.70;0.30;;;;;;;;;;5056447;28;20388;-81
2023/08/06 07:58:34;;;;;;;1.27;0.40;;;;;;;;;;5046853;28;20754;-82
2023/08/06 08:01:00;;;;;;;0.50;0.30;;;;;;;;;;5070207;28;20387;-82
2023/08/06 08:03:26;;;;;;;0.65;0.20;;;;;;;;;;5075246;28;20392;-82
2023/08/06 08:05:57;;;;;;;0.45;0.30;;;;;;;;;;5054090;28;20384;-81
2023/08/06 08:08:23;;;;;;;0.52;0.25;;;;;;;;;;5061594;28;20449;-81
2023/08/06 08:10:49;;;;;;;0.60;0.30;;;;;;;;;;5075706;28;20391;-81
2023/08/06 08:13:15;;;;;;;0.17;0.10;;;;;;;;;;5066712;28;20391;-81
2023/08/06 08:15:41;;;;;;;0.50;0.20;;;;;;;;;;5075275;28;20926;-81
2023/08/06 08:18:07;;;;;;;0.70;0.30;;;;;;;;;;5074125;28;20396;-80
2023/08/06 08:20:35;;;;;;;0.30;0.20;;;;;;;;;;5056183;28;20823;-81
2023/08/06 08:23:01;;;;;;;0.73;0.20;;;;;;;;;;5059971;28;20466;-83
2023/08/06 08:25:27;;;;;;;0.40;0.25;;;;;;;;;;5074097;28;20392;-81
2023/08/06 08:27:54;;;;;;;0.20;0.10;;;;;;;;;;5073715;28;20569;-81
2023/08/06 08:30:20;;;;;;;0.90;0.20;;;;;;;;;;5074374;28;20379;-82
2023/08/06 08:32:46;;;;;;;0.25;0.20;;;;;;;;;;5061773;28;20396;-82
2023/08/06 08:35:12;;;;;;;0.30;0.10;;;;;;;;;;5067709;28;20460;-82
2023/08/06 08:37:39;;;;;;;0.17;0.17;;;;;;;;;;5078343;28;20414;-81
2023/08/06 08:40:06;;;;;;;0.73;0.10;;;;;;;;;;5079682;28;20841;-83
2023/08/06 08:42:32;;;;;;;0.70;0.10;;;;;;;;;;5078083;28;20380;-82
2023/08/06 08:44:58;;;;;;;0.40;0.17;;;;;;;;;;5078089;28;20884;-82
2023/08/06 08:47:25;;;;;;;0.50;0.10;;;;;;;;;;5077163;28;20833;-82
2023/08/06 08:49:57;;;;;;;0.20;0.10;;;;;;;;;;5059391;28;20419;-82
2023/08/06 08:52:24;;;;;;;0.30;0.10;;;;;;;;;;5056814;28;20392;-82
2023/08/06 08:54:52;;;;;;;0.60;0.10;;;;;;;;;;5076735;28;20418;-81
2023/08/06 08:57:18;;;;;;;0.17;0.10;;;;;;;;;;5074093;28;20756;-82
2023/08/06 08:59:44;;;;;;;0.15;0.10;;;;;;;;;;5069627;28;20376;-81
2023/08/06 09:02:15;;;;;;;1.05;0.17;;;;;;;;;;5074118;28;20388;-80
2023/08/06 09:04:41;;;;;;;0.20;0.10;;;;;;;;;;5058759;28;20432;-81
2023/08/06 09:07:09;;;;;;;0.10;0.10;;;;;;;;;;5076663;28;20415;-81
2023/08/06 09:09:38;;;;;;;0.30;0.10;;;;;;;;;;5078062;28;20467;-82
2023/08/06 09:12:15;;;;;;;0.30;0.10;;;;;;;;;;5074884;28;20374;-80
2023/08/06 09:14:42;;;;;;;0.00;0.00;;;;;;;;;;5078370;28;20406;-80
2023/08/06 09:17:08;;;;;;;0.50;0.20;;;;;;;;;;5078399;28;20380;-80
2023/08/06 09:19:34;;;;;;;0.10;0.00;;;;;;;;;;5078704;28;20380;-81
2023/08/06 09:22:01;;;;;;;0.00;0.00;;;;;;;;;;5078373;28;20382;-82
2023/08/06 09:24:27;;;;;;;0.10;0.00;;;;;;;;;;5078149;28;20471;-81
2023/08/06 09:26:54;;;;;;;0.30;0.10;;;;;;;;;;5078326;28;20407;-81
2023/08/06 09:29:20;;;;;;;0.28;0.13;;;;;;;;;;5077909;28;20865;-81
2023/08/06 09:31:47;;;;;;;0.38;0.10;;;;;;;;;;5077791;28;20376;-80
2023/08/06 09:34:16;;;;;;;0.17;0.10;;;;;;;;;;5077612;28;20507;-80
2023/08/06 09:36:43;;;;;;;0.10;0.10;;;;;;;;;;5077870;28;20403;-80
2023/08/06 09:39:21;;;;;;;0.60;0.10;;;;;;;;;;5077178;28;20410;-81
2023/08/06 09:41:48;;;;;;;0.52;0.10;;;;;;;;;;5077600;28;20487;-80
2023/08/06 09:44:23;;;;;;;0.20;0.20;;;;;;;;;;5076971;28;20412;-82
2023/08/06 09:46:49;;;;;;;0.32;0.10;;;;;;;;;;5058229;28;20403;-80
2023/08/06 09:49:16;;;;;;;0.25;0.17;;;;;;;;;;5076941;28;20406;-80
2023/08/06 09:51:44;;;;;;;0.10;0.10;;;;;;;;;;5072333;28;20380;-81
2023/08/06 09:54:12;;;;;;;0.10;0.10;;;;;;;;;;5070999;28;20816;-80
2023/08/06 09:56:38;;;;;;;1.17;0.20;;;;;;;;;;5075148;28;20448;-80
2023/08/06 09:59:07;;;;;;;0.88;0.25;;;;;;;;;;5077448;28;20384;-82
2023/08/06 10:01:34;;;;;;;0.40;0.30;;;;;;;;;;5076640;28;20382;-80
2023/08/06 10:04:01;;;;;;;0.70;0.10;;;;;;;;;;5076912;28;20386;-81
2023/08/06 10:06:27;;;;;;;0.10;0.10;;;;;;;;;;5077129;28;20515;-80
2023/08/06 10:08:53;;;;;;;0.30;0.20;;;;;;;;;;5078360;28;20404;-80
2023/08/06 10:11:20;;;;;;;0.50;0.30;;;;;;;;;;5087238;28;20384;-81
2023/08/06 10:13:46;;;;;;;0.20;0.20;;;;;;;;;;5084092;28;20396;-81
2023/08/06 10:16:12;;;;;;;1.40;0.30;;;;;;;;;;5079077;28;20395;-80
2023/08/06 10:18:39;;;;;;;0.40;0.15;;;;;;;;;;5079918;28;20376;-81
2023/08/06 10:21:08;;;;;;;0.10;0.10;;;;;;;;;;5076895;28;20391;-81
2023/08/06 10:23:35;;;;;;;0.57;0.20;;;;;;;;;;5059991;28;20383;-80
2023/08/06 10:26:01;;;;;;;0.10;0.10;;;;;;;;;;5057473;28;20403;-81
2023/08/06 10:28:37;;;;;;;0.30;0.20;;;;;;;;;;5064825;28;20424;-79
2023/08/06 10:31:07;;;;;;;1.00;0.20;;;;;;;;;;5047181;28;20384;-80
2023/08/06 10:33:45;;;;;;;0.50;0.20;;;;;;;;;;5078090;28;20763;-81
2023/08/06 10:36:12;;;;;;;0.40;0.20;;;;;;;;;;5075998;28;20379;-82
2023/08/06 10:38:44;;;;;;;0.22;0.10;;;;;;;;;;5077548;28;20376;-80
2023/08/06 10:41:15;;;;;;;0.28;0.10;;;;;;;;;;5074772;28;20391;-80
2023/08/06 10:43:43;;;;;;;0.20;0.20;;;;;;;;;;5071960;28;20384;-79
2023/08/06 10:46:21;;;;;;;0.20;0.20;;;;;;;;;;5075683;28;20380;-80
2023/08/06 10:48:47;;;;;;;0.20;0.10;;;;;;;;;;5068127;28;21029;-79
2023/08/06 10:51:14;;;;;;;0.10;0.10;;;;;;;;;;5076759;28;20379;-79
2023/08/06 10:53:44;;;;;;;0.15;0.10;;;;;;;;;;5072594;28;20776;-78
2023/08/06 10:56:17;;;;;;;0.73;0.25;;;;;;;;;;5071067;28;20376;-78
2023/08/06 10:58:44;;;;;;;0.20;0.20;;;;;;;;;;5072387;28;20465;-78
2023/08/06 11:01:10;;;;;;;0.20;0.10;;;;;;;;;;5074581;28;20917;-79
2023/08/06 11:03:37;;;;;;;0.10;0.10;;;;;;;;;;5073950;28;20604;-79
2023/08/06 11:06:03;;;;;;;0.10;0.10;;;;;;;;;;5074934;28;20455;-79
2023/08/06 11:08:31;;;;;;;0.10;0.10;;;;;;;;;;5074526;28;20411;-78
2023/08/06 11:11:07;;;;;;;0.30;0.17;;;;;;;;;;5075385;28;20379;-79
2023/08/06 11:13:34;;;;;;;0.55;0.20;;;;;;;;;;5074105;28;20386;-77
2023/08/06 11:16:00;;;;;;;0.70;0.20;;;;;;;;;;5073934;28;20379;-78
2023/08/06 11:18:26;;;;;;;0.70;0.20;;;;;;;;;;5073699;28;20779;-79
2023/08/06 11:20:52;;;;;;;0.10;0.10;;;;;;;;;;5074685;28;20383;-78
2023/08/06 11:23:18;;;;;;;0.85;0.20;;;;;;;;;;5074666;28;20372;-79
2023/08/06 11:25:45;;;;;;;0.60;0.20;;;;;;;;;;5073213;28;20837;-79
2023/08/06 11:28:12;;;;;;;0.30;0.30;;;;;;;;;;5073687;28;20418;-78
2023/08/06 11:30:38;;;;;;;0.13;0.13;;;;;;;;;;5072042;28;20856;-79
2023/08/06 11:33:07;;;;;;;0.32;0.30;;;;;;;;;;5063728;28;20383;-79
2023/08/06 11:35:36;;;;;;;0.90;0.20;;;;;;;;;;5073825;28;20460;-79
2023/08/06 11:38:03;;;;;;;0.30;0.20;;;;;;;;;;5074230;28;20376;-78
2023/08/06 11:40:29;;;;;;;0.80;0.20;;;;;;;;;;5074085;28;20390;-79
2023/08/06 11:42:55;;;;;;;0.17;0.15;;;;;;;;;;5072670;28;20376;-79
2023/08/06 11:45:24;;;;;;;0.73;0.40;;;;;;;;;;5074348;28;20372;-79
2023/08/06 11:47:53;;;;;;;0.38;0.38;;;;;;;;;;5072638;28;20843;-79
2023/08/06 11:50:23;;;;;;;0.60;0.60;;;;;;;;;;5073987;28;20434;-78
2023/08/06 11:52:54;;;;;;;0.80;0.63;;;;;;;;;;5073106;28;20379;-79
2023/08/06 11:55:23;;;;;;;0.88;0.82;;;;;;;;;;5075424;28;20376;-80
2023/08/06 11:57:49;;;;;;;0.80;0.80;;;;;;;;;;5075835;28;20376;-80
2023/08/06 12:00:17;;;;;;;0.20;0.20;;;;;;;;;;5075167;28;20888;-80
2023/08/06 12:02:45;;;;;;;0.40;0.20;;;;;;;;;;5074150;28;20384;-80
2023/08/06 12:05:14;;;;;;;0.28;0.20;;;;;;;;;;5074343;28;20391;-78
2023/08/06 12:07:47;;;;;;;0.30;0.30;;;;;;;;;;5075863;28;20403;-80
2023/08/06 12:10:14;;;;;;;1.00;0.20;;;;;;;;;;5076927;28;20388;-79
2023/08/06 12:12:40;;;;;;;0.30;0.10;;;;;;;;;;5076835;28;20372;-79
2023/08/06 12:15:09;;;;;;;0.13;0.13;;;;;;;;;;5077316;28;20384;-79
2023/08/06 12:17:36;;;;;;;0.30;0.20;;;;;;;;;;5069397;28;20391;-79
2023/08/06 12:20:04;;;;;;;0.60;0.17;;;;;;;;;;5076960;28;20855;-79
2023/08/06 12:22:34;;;;;;;0.60;0.50;;;;;;;;;;5077623;28;20387;-79
2023/08/06 12:25:00;;;;;;;0.90;0.50;;;;;;;;;;5077929;28;20387;-79
2023/08/06 12:27:26;;;;;;;0.40;0.30;;;;;;;;;;5077715;28;20856;-79
2023/08/06 12:29:53;;;;;;;0.40;0.40;;;;;;;;;;5077916;28;20392;-79
2023/08/06 12:32:19;;;;;;;0.60;0.40;;;;;;;;;;5077363;28;20375;-79
2023/08/06 12:34:45;;;;;;;0.60;0.20;;;;;;;;;;5060001;28;20395;-79
2023/08/06 12:37:11;;;;;;;0.50;0.50;;;;;;;;;;5077219;28;20387;-79
2023/08/06 12:39:37;;;;;;;1.10;0.50;;;;;;;;;;5078079;28;20725;-79
2023/08/06 12:42:04;;;;;;;0.63;0.63;;;;;;;;;;5077659;28;20388;-79
2023/08/06 12:44:31;;;;;;;0.20;0.20;;;;;;;;;;5077044;28;20702;-79
2023/08/06 12:46:57;;;;;;;0.40;0.20;;;;;;;;;;5068400;28;20567;-79
2023/08/06 12:49:24;;;;;;;0.40;0.30;;;;;;;;;;5076244;28;20436;-79
2023/08/06 12:51:50;;;;;;;0.40;0.30;;;;;;;;;;5076305;28;20408;-79
2023/08/06 12:54:20;;;;;;;0.35;0.35;;;;;;;;;;5057401;28;20440;-78
2023/08/06 12:56:47;;;;;;;0.30;0.30;;;;;;;;;;5074860;28;20426;-79
2023/08/06 12:59:14;;;;;;;0.30;0.30;;;;;;;;;;5076232;28;20391;-78
2023/08/06 13:01:40;;;;;;;0.85;0.30;;;;;;;;;;5064535;28;20821;-78
2023/08/06 13:04:06;;;;;;;0.57;0.32;;;;;;;;;;5076875;28;20379;-79
2023/08/06 13:06:36;;;;;;;0.30;0.30;;;;;;;;;;5074816;28;20904;-79
2023/08/06 13:09:03;;;;;;;0.70;0.30;;;;;;;;;;5069524;28;20505;-79
2023/08/06 13:11:29;;;;;;;0.30;0.20;;;;;;;;;;5074346;28;20462;-78
2023/08/06 13:13:55;;;;;;;0.40;0.40;;;;;;;;;;5076680;28;20387;-79
2023/08/06 13:16:21;;;;;;;0.77;0.30;;;;;;;;;;5076228;28;20379;-79
2023/08/06 13:18:47;;;;;;;0.47;0.30;;;;;;;;;;5076323;28;20406;-80
2023/08/06 13:21:13;;;;;;;0.82;0.38;;;;;;;;;;5077446;28;20394;-79
2023/08/06 13:23:39;;;;;;;0.20;0.20;;;;;;;;;;5075736;28;20795;-79
2023/08/06 13:26:05;;;;;;;0.30;0.30;;;;;;;;;;5058225;28;20437;-79
2023/08/06 13:28:31;;;;;;;0.82;0.40;;;;;;;;;;5076220;28;20424;-79
2023/08/06 13:30:57;;;;;;;0.80;0.30;;;;;;;;;;5066885;28;20377;-78
2023/08/06 13:33:23;;;;;;;0.63;0.30;;;;;;;;;;5067358;28;20455;-79
2023/08/06 13:35:50;;;;;;;0.65;0.10;;;;;;;;;;5075863;28;20409;-79
2023/08/06 13:38:16;;;;;;;0.40;0.40;;;;;;;;;;5076059;28;20376;-78
2023/08/06 13:40:44;;;;;;;0.40;0.30;;;;;;;;;;5075615;28;20402;-79
2023/08/06 13:43:10;;;;;;;0.40;0.40;;;;;;;;;;5076238;28;20411;-78
2023/08/06 13:45:37;;;;;;;0.30;0.30;;;;;;;;;;5076085;28;20374;-79
2023/08/06 13:48:03;;;;;;;0.23;0.23;;;;;;;;;;5074991;28;20485;-79
2023/08/06 13:50:29;;;;;;;2.80;0.50;;;;;;;;;;5077056;28;20429;-79
2023/08/06 13:52:55;;;;;;;0.50;0.30;;;;;;;;;;5076574;28;20441;-79
2023/08/06 13:55:22;;;;;;;0.38;0.25;;;;;;;;;;5076566;28;20383;-79
2023/08/06 13:57:49;;;;;;;0.47;0.45;;;;;;;;;;5074920;28;20857;-79
2023/08/06 14:00:14;;;;;;;1.10;0.50;;;;;;;;;;5075815;28;20388;-80
2023/08/06 14:02:43;;;;;;;1.65;0.60;;;;;;;;;;5076269;28;20856;-79
2023/08/06 14:05:09;;;;;;;0.80;0.40;;;;;;;;;;5068934;28;20405;-79
2023/08/06 14:07:36;;;;;;;0.60;0.30;;;;;;;;;;5057050;28;20778;-78
2023/08/06 14:10:02;;;;;;;1.10;0.45;;;;;;;;;;5056393;28;20380;-78
2023/08/06 14:12:27;;;;;;;0.95;0.40;;;;;;;;;;5074738;28;20422;-78
2023/08/06 14:14:54;;;;;;;0.65;0.50;;;;;;;;;;5073326;28;20540;-79
2023/08/06 14:17:20;;;;;;;0.63;0.50;;;;;;;;;;5074582;28;20378;-79
2023/08/06 14:19:45;;;;;;;0.80;0.40;;;;;;;;;;5075113;28;20462;-78
2023/08/06 14:22:11;;;;;;;0.52;0.40;;;;;;;;;;5075344;28;20455;-79
2023/08/06 14:24:38;;;;;;;1.30;0.45;;;;;;;;;;5076127;28;20782;-79
2023/08/06 14:27:05;;;;;;;1.27;0.50;;;;;;;;;;5074454;28;20447;-78
2023/08/06 14:29:32;;;;;;;0.75;0.50;;;;;;;;;;5074802;28;20384;-78
2023/08/06 14:31:58;;;;;;;0.47;0.40;;;;;;;;;;5075428;28;20380;-78
2023/08/06 14:34:24;;;;;;;1.00;0.60;;;;;;;;;;5075053;28;20387;-79
2023/08/06 14:36:50;;;;;;;0.65;0.52;;;;;;;;;;5075520;28;20372;-79
2023/08/06 14:39:16;;;;;;;0.35;0.30;;;;;;;;;;5062276;28;20441;-79